Time;durP1;ratioP1;P1;durP2;ratioP2;P2;SDS_P1;SDS_P2;PMS_P1;PMS_P2;Temp;Humidity;BMP_temperature;BMP_pressure;BME280_temperature;BME280_humidity;BME280_pressure;Samples;Min_cycle;Max_cycle;Signal;HPM_P1;HPM_P2
2022/01/15 00:01:48;;;;;;;20.33;12.27;;;-2.20;99.90;;;;;;5011596;28;20014;-83
2022/01/15 00:04:14;;;;;;;22.57;11.70;;;-2.20;99.90;;;;;;5011311;28;20026;-84
2022/01/15 00:06:39;;;;;;;17.60;10.30;;;-2.20;99.90;;;;;;5009993;28;20117;-84
2022/01/15 00:09:06;;;;;;;16.97;10.47;;;-2.20;99.90;;;;;;5010978;28;20026;-83
2022/01/15 00:11:34;;;;;;;21.50;11.73;;;-2.20;99.90;;;;;;5011306;28;20522;-83
2022/01/15 00:14:12;;;;;;;17.87;10.70;;;-2.20;99.90;;;;;;5011470;28;20026;-84
2022/01/15 00:16:48;;;;;;;17.43;10.47;;;-2.20;99.90;;;;;;5021655;28;20021;-84
2022/01/15 00:19:16;;;;;;;19.90;10.67;;;-2.20;99.90;;;;;;5016392;28;20036;-83
2022/01/15 00:21:41;;;;;;;18.00;11.00;;;-2.20;99.90;;;;;;5011143;28;20128;-83
2022/01/15 00:24:07;;;;;;;17.67;10.20;;;-2.20;99.90;;;;;;5010982;28;20030;-83
2022/01/15 00:26:33;;;;;;;16.63;10.40;;;-2.30;99.90;;;;;;5011766;28;20467;-84
2022/01/15 00:29:00;;;;;;;16.07;11.53;;;-2.30;99.90;;;;;;5014442;28;20034;-83
2022/01/15 00:31:25;;;;;;;18.40;11.20;;;-2.30;99.90;;;;;;5013108;28;20108;-83
2022/01/15 00:33:51;;;;;;;18.53;11.00;;;-2.30;99.90;;;;;;5014113;28;20129;-84
2022/01/15 00:36:17;;;;;;;17.83;11.13;;;-2.30;99.90;;;;;;5014324;28;20084;-84
2022/01/15 00:38:44;;;;;;;20.13;11.33;;;-2.30;99.90;;;;;;5013870;28;20038;-84
2022/01/15 00:41:09;;;;;;;18.70;11.77;;;-2.40;99.90;;;;;;5012716;28;20061;-83
2022/01/15 00:43:35;;;;;;;19.90;10.67;;;-2.40;99.90;;;;;;5013660;28;20128;-83
2022/01/15 00:46:01;;;;;;;17.30;10.17;;;-2.40;99.90;;;;;;5013642;28;20034;-84
2022/01/15 00:48:27;;;;;;;16.70;10.23;;;-2.40;99.90;;;;;;5013521;28;20034;-84
2022/01/15 00:50:53;;;;;;;15.93;9.87;;;-2.40;99.90;;;;;;5013933;28;20030;-84
2022/01/15 00:53:19;;;;;;;15.37;10.00;;;-2.40;99.90;;;;;;5013801;28;20348;-83
2022/01/15 00:55:45;;;;;;;13.90;9.60;;;-2.40;99.90;;;;;;5012702;28;20021;-83
2022/01/15 00:58:11;;;;;;;16.67;9.87;;;-2.50;99.90;;;;;;5014395;28;20014;-83
2022/01/15 01:00:37;;;;;;;17.43;10.57;;;-2.50;99.90;;;;;;5013456;28;20024;-83
2022/01/15 01:03:02;;;;;;;16.43;9.83;;;-2.50;99.90;;;;;;5013054;28;20092;-83
2022/01/15 01:05:28;;;;;;;19.60;10.23;;;-2.50;99.90;;;;;;5013743;28;20795;-79
2022/01/15 01:07:56;;;;;;;16.23;10.40;;;-2.50;99.90;;;;;;5012940;28;20026;-79
2022/01/15 01:21:33;;;;;;;;;;;-2.70;99.90;;;;;;5033376;28;20036;-79
2022/01/15 01:23:48;;;;;;;22.02;11.70;;;-2.70;99.90;;;;;;5032254;28;20343;-79
2022/01/15 01:26:32;;;;;;;18.57;11.93;;;-2.70;99.90;;;;;;5032271;28;20029;-79
2022/01/15 01:31:56;;;;;;;22.10;12.37;;;-2.80;99.90;;;;;;5032566;28;20448;-79
2022/01/15 01:34:25;;;;;;;19.53;11.33;;;-2.80;99.90;;;;;;5030551;28;20136;-79
2022/01/15 01:37:01;;;;;;;21.07;11.90;;;-2.80;99.90;;;;;;5032205;28;20140;-79
2022/01/15 01:39:38;;;;;;;23.03;13.40;;;-2.90;99.90;;;;;;5031395;28;20127;-79
2022/01/15 01:42:14;;;;;;;19.90;11.20;;;-2.90;99.90;;;;;;5032060;28;20421;-79
2022/01/15 01:45:01;;;;;;;21.23;11.93;;;-2.80;99.90;;;;;;5032122;28;20100;-79
2022/01/15 01:47:39;;;;;;;22.20;10.77;;;-2.90;99.90;;;;;;5016987;28;20045;-79
2022/01/15 01:50:14;;;;;;;18.10;10.83;;;-2.90;99.90;;;;;;5012038;28;20040;-78
2022/01/15 01:52:41;;;;;;;19.67;10.40;;;-2.90;99.90;;;;;;5012198;28;20482;-79
2022/01/15 01:55:08;;;;;;;16.03;9.93;;;-2.90;99.90;;;;;;5011805;28;20044;-80
2022/01/15 01:57:34;;;;;;;18.43;9.87;;;-2.90;99.90;;;;;;5012100;28;20080;-79
2022/01/15 02:00:00;;;;;;;19.40;10.53;;;-3.00;99.90;;;;;;5011805;28;20488;-79
2022/01/15 02:02:26;;;;;;;16.73;9.73;;;-3.00;99.90;;;;;;5011711;28;20129;-79
2022/01/15 02:04:57;;;;;;;16.57;9.40;;;-3.00;99.90;;;;;;5011840;28;20104;-79
2022/01/15 02:07:25;;;;;;;16.03;9.50;;;-3.00;99.90;;;;;;5011703;28;20096;-80
2022/01/15 02:09:52;;;;;;;15.83;9.37;;;-3.00;99.90;;;;;;5011796;28;20022;-80
2022/01/15 02:12:17;;;;;;;16.27;10.27;;;-3.00;99.90;;;;;;5011865;28;20539;-80
2022/01/15 02:14:43;;;;;;;15.80;9.10;;;-3.10;99.90;;;;;;5011445;28;20101;-80
2022/01/15 02:17:09;;;;;;;15.67;9.00;;;-3.10;99.90;;;;;;5020565;28;20068;-80
2022/01/15 02:19:56;;;;;;;16.83;8.93;;;-3.10;99.90;;;;;;5013691;28;20030;-80
2022/01/15 02:25:06;;;;;;;15.67;9.47;;;-3.10;99.90;;;;;;5011591;28;20045;-80
2022/01/15 02:27:33;;;;;;;18.60;10.43;;;-3.10;99.90;;;;;;5011482;28;20034;-80
2022/01/15 02:30:00;;;;;;;15.33;9.23;;;-3.10;99.90;;;;;;5011371;28;20239;-80
2022/01/15 02:32:25;;;;;;;15.60;9.33;;;-3.10;99.90;;;;;;5011510;28;20034;-80
2022/01/15 02:34:51;;;;;;;14.03;9.33;;;-3.20;99.90;;;;;;5011387;28;20115;-80
2022/01/15 02:37:16;;;;;;;15.03;8.70;;;-3.10;99.90;;;;;;5011324;28;20034;-80
2022/01/15 02:39:42;;;;;;;14.23;8.70;;;-3.20;99.90;;;;;;5011342;28;20030;-80
2022/01/15 02:42:10;;;;;;;19.13;9.30;;;-3.20;99.90;;;;;;5009944;28;20117;-80
2022/01/15 02:44:38;;;;;;;15.83;8.23;;;-3.20;99.90;;;;;;5011034;28;20382;-80
2022/01/15 02:49:29;;;;;;;15.77;8.40;;;-3.20;99.90;;;;;;5011333;28;20109;-80
2022/01/15 02:51:57;;;;;;;15.63;9.57;;;-3.20;99.90;;;;;;5011067;28;20041;-80
2022/01/15 02:54:23;;;;;;;14.30;8.73;;;-3.30;99.90;;;;;;5011100;28;20033;-80
2022/01/15 02:56:48;;;;;;;15.03;9.33;;;-3.20;99.90;;;;;;5011108;28;20245;-80
2022/01/15 02:59:19;;;;;;;16.93;9.17;;;-3.30;99.90;;;;;;5011287;28;20096;-80
2022/01/15 03:01:46;;;;;;;15.17;8.33;;;-3.30;99.90;;;;;;5011103;28;20038;-80
2022/01/15 03:04:12;;;;;;;14.20;8.60;;;-3.30;99.90;;;;;;5011068;28;20040;-80
2022/01/15 03:06:38;;;;;;;16.03;9.37;;;-3.30;99.90;;;;;;5010994;28;20029;-80
2022/01/15 03:09:03;;;;;;;13.10;8.30;;;-3.30;99.90;;;;;;5010837;28;20030;-80
2022/01/15 03:11:29;;;;;;;17.30;9.27;;;-3.40;99.90;;;;;;5026336;28;20786;-80
2022/01/15 03:13:54;;;;;;;17.30;10.03;;;-3.40;99.90;;;;;;5010853;28;20037;-80
2022/01/15 03:16:22;;;;;;;20.07;10.03;;;-3.40;99.90;;;;;;5013285;28;20423;-79
2022/01/15 03:18:48;;;;;;;18.33;9.37;;;-3.40;99.90;;;;;;5022000;28;20030;-79
2022/01/15 03:21:14;;;;;;;15.87;10.03;;;-3.40;99.90;;;;;;5030431;28;20033;-79
2022/01/15 03:23:40;;;;;;;14.20;8.57;;;-3.50;99.90;;;;;;5030410;28;20707;-79
2022/01/15 03:26:08;;;;;;;12.80;8.13;;;-3.50;99.90;;;;;;5030432;28;20492;-79
2022/01/15 03:28:34;;;;;;;12.90;8.40;;;-3.50;99.90;;;;;;5030132;28;20036;-79
2022/01/15 03:31:00;;;;;;;13.30;8.00;;;-3.50;99.90;;;;;;5028899;28;20032;-79
2022/01/15 03:33:25;;;;;;;14.70;8.57;;;-3.50;99.90;;;;;;5030068;28;20033;-79
2022/01/15 03:35:51;;;;;;;14.70;9.10;;;-3.50;99.90;;;;;;5030236;28;20040;-79
2022/01/15 03:38:17;;;;;;;17.30;9.17;;;-3.60;99.90;;;;;;5028900;28;20120;-79
2022/01/15 03:40:42;;;;;;;15.67;9.63;;;-3.60;99.90;;;;;;5030225;28;20144;-79
2022/01/15 03:43:08;;;;;;;16.37;9.57;;;-3.60;99.90;;;;;;5029894;28;20481;-79
2022/01/15 03:45:36;;;;;;;77.60;31.30;;;-3.50;99.90;;;;;;5028806;28;20022;-79
2022/01/15 03:48:03;;;;;;;34.73;16.10;;;-3.50;99.90;;;;;;5030165;28;20034;-79
2022/01/15 03:50:29;;;;;;;47.03;20.47;;;-3.60;99.90;;;;;;5028737;28;20425;-79
2022/01/15 03:52:55;;;;;;;31.20;16.10;;;-3.60;99.90;;;;;;5028936;28;20088;-79
2022/01/15 03:55:21;;;;;;;55.40;22.50;;;-3.60;99.90;;;;;;5028905;28;20044;-79
2022/01/15 03:57:47;;;;;;;65.83;28.20;;;-3.60;99.90;;;;;;5029714;28;20390;-79
2022/01/15 04:00:19;;;;;;;80.00;31.83;;;-3.60;99.90;;;;;;5028601;28;20034;-79
2022/01/15 04:02:46;;;;;;;61.70;27.33;;;-3.60;99.90;;;;;;5032305;28;20371;-79
2022/01/15 04:05:12;;;;;;;55.77;24.80;;;-3.60;99.90;;;;;;5033727;28;20037;-79
2022/01/15 04:07:38;;;;;;;49.40;23.33;;;-3.70;99.90;;;;;;5033730;28;20033;-79
2022/01/15 04:10:09;;;;;;;45.20;20.40;;;-3.70;99.90;;;;;;5033546;28;20061;-79
2022/01/15 04:12:35;;;;;;;36.97;16.90;;;-3.70;99.90;;;;;;5033563;28;20041;-79
2022/01/15 04:15:00;;;;;;;24.83;14.03;;;-3.70;99.90;;;;;;5033558;28;20033;-79
2022/01/15 04:17:26;;;;;;;24.73;12.27;;;-3.70;99.90;;;;;;5025882;28;20395;-79
2022/01/15 04:19:52;;;;;;;20.80;11.40;;;-3.70;99.90;;;;;;5012255;28;20030;-79
2022/01/15 04:22:18;;;;;;;19.37;11.33;;;-3.70;99.90;;;;;;5012270;28;20065;-79
2022/01/15 04:24:43;;;;;;;16.90;10.03;;;-3.70;99.90;;;;;;5013762;28;20057;-79
2022/01/15 04:27:09;;;;;;;16.77;10.17;;;-3.70;99.90;;;;;;5013533;28;20444;-79
2022/01/15 04:29:35;;;;;;;17.40;9.87;;;-3.70;99.90;;;;;;5013516;28;20041;-79
2022/01/15 04:32:02;;;;;;;17.00;10.17;;;-3.70;99.90;;;;;;5013655;28;20030;-79
2022/01/15 04:34:28;;;;;;;14.37;8.60;;;-3.70;99.90;;;;;;5013332;28;20136;-79
2022/01/15 04:37:02;;;;;;;17.27;9.23;;;-3.70;99.90;;;;;;5013510;28;20570;-79
2022/01/15 04:39:27;;;;;;;17.97;10.13;;;-3.70;99.90;;;;;;5013290;28;20030;-79
2022/01/15 04:41:53;;;;;;;18.53;9.97;;;-3.70;99.90;;;;;;5012260;28;20029;-79
2022/01/15 04:44:19;;;;;;;20.77;10.50;;;-3.70;99.90;;;;;;5028115;28;20073;-79
2022/01/15 04:46:44;;;;;;;19.97;10.57;;;-3.70;99.90;;;;;;5013393;28;20061;-79
2022/01/15 04:49:10;;;;;;;19.63;11.00;;;-3.70;99.90;;;;;;5013197;28;20084;-79
2022/01/15 04:51:36;;;;;;;17.43;9.60;;;-3.70;99.90;;;;;;5013325;28;20084;-79
2022/01/15 04:54:02;;;;;;;17.40;9.53;;;-3.70;99.90;;;;;;5013366;28;20030;-79
2022/01/15 04:56:27;;;;;;;16.30;10.00;;;-3.70;99.90;;;;;;5013143;28;20048;-80
2022/01/15 04:58:53;;;;;;;21.37;10.20;;;-3.70;99.90;;;;;;5013081;28;20038;-79
2022/01/15 05:01:18;;;;;;;19.67;10.17;;;-3.70;99.90;;;;;;5012880;28;20427;-79
2022/01/15 05:03:44;;;;;;;18.10;10.97;;;-3.70;99.90;;;;;;5015244;28;20025;-86
2022/01/15 05:06:09;;;;;;;17.80;9.67;;;-3.70;99.90;;;;;;5031073;28;20057;-85
2022/01/15 05:08:35;;;;;;;19.63;10.43;;;-3.70;99.90;;;;;;5015759;28;20630;-87
2022/01/15 05:11:11;;;;;;;20.30;10.30;;;-3.70;99.90;;;;;;5030875;28;20022;-87
2022/01/15 05:13:38;;;;;;;19.20;10.20;;;-3.80;99.90;;;;;;5014389;28;20113;-87
2022/01/15 05:16:04;;;;;;;17.07;9.63;;;-3.80;99.90;;;;;;5014213;28;20392;-87
2022/01/15 05:18:29;;;;;;;16.77;9.47;;;-3.80;99.90;;;;;;5015392;28;20041;-87
2022/01/15 05:20:56;;;;;;;16.27;9.33;;;-3.80;99.90;;;;;;5016501;28;20488;-86
2022/01/15 05:23:22;;;;;;;18.60;9.43;;;-3.80;99.90;;;;;;5015578;28;20029;-87
2022/01/15 05:25:48;;;;;;;17.97;10.27;;;-3.90;99.90;;;;;;5015241;28;20030;-86
2022/01/15 05:28:13;;;;;;;18.30;10.50;;;-3.90;99.90;;;;;;5015558;28;20037;-87
2022/01/15 05:30:39;;;;;;;15.67;9.50;;;-3.90;99.90;;;;;;5015177;28;20486;-86
2022/01/15 05:33:05;;;;;;;15.80;9.50;;;-3.90;99.90;;;;;;5015186;28;20379;-86
2022/01/15 05:35:30;;;;;;;16.03;9.97;;;-4.00;99.90;;;;;;5015095;28;20621;-86
2022/01/15 05:37:57;;;;;;;17.63;8.47;;;-4.00;99.90;;;;;;5013943;28;20442;-87
2022/01/15 05:40:24;;;;;;;17.27;8.80;;;-4.00;99.90;;;;;;5021793;28;20076;-86
2022/01/15 05:42:49;;;;;;;17.00;10.30;;;-4.00;99.90;;;;;;5034836;28;20065;-86
2022/01/15 05:45:15;;;;;;;15.53;8.90;;;-4.00;99.90;;;;;;5034748;28;20080;-86
2022/01/15 05:47:41;;;;;;;17.13;9.30;;;-4.00;99.90;;;;;;5034729;28;20025;-85
2022/01/15 05:50:08;;;;;;;12.50;8.43;;;-4.00;99.90;;;;;;5034584;28;20105;-85
2022/01/15 05:52:34;;;;;;;16.20;9.70;;;-4.00;99.90;;;;;;5035037;28;20033;-86
2022/01/15 05:55:00;;;;;;;14.93;9.90;;;-4.00;99.90;;;;;;5034560;28;20083;-85
2022/01/15 05:57:25;;;;;;;16.87;10.70;;;-4.00;99.90;;;;;;5033853;28;20366;-86
2022/01/15 05:59:51;;;;;;;18.67;8.60;;;-4.00;99.90;;;;;;5034750;28;20044;-85
2022/01/15 06:02:20;;;;;;;17.27;10.47;;;-4.00;99.90;;;;;;5036476;28;20022;-87
2022/01/15 06:04:46;;;;;;;16.87;9.60;;;-4.00;99.90;;;;;;5036463;28;20036;-87
2022/01/15 06:07:12;;;;;;;18.00;9.70;;;-3.90;99.90;;;;;;5035268;28;20026;-86
2022/01/15 06:09:37;;;;;;;25.13;13.23;;;-3.90;99.90;;;;;;5044011;28;20033;-80
2022/01/15 06:12:03;;;;;;;18.70;10.93;;;-3.90;99.90;;;;;;5052556;28;20025;-81
2022/01/15 06:14:30;;;;;;;22.00;10.90;;;-3.70;99.90;;;;;;5053237;28;20025;-81
2022/01/15 06:16:56;;;;;;;21.67;11.73;;;-3.70;99.90;;;;;;5054580;28;20089;-81
2022/01/15 06:19:22;;;;;;;20.73;10.47;;;-3.60;99.90;;;;;;5053921;28;20017;-81
2022/01/15 06:21:48;;;;;;;22.87;11.20;;;-3.40;99.90;;;;;;5055023;28;20033;-81
2022/01/15 06:24:13;;;;;;;32.00;10.90;;;-3.20;99.90;;;;;;5050443;28;20033;-81
2022/01/15 06:26:39;;;;;;;47.93;19.43;;;-3.10;99.90;;;;;;5047958;28;20043;-81
2022/01/15 06:29:04;;;;;;;48.77;17.60;;;-3.10;99.90;;;;;;5031646;28;20429;-81
2022/01/15 06:31:31;;;;;;;45.23;15.37;;;-3.00;99.90;;;;;;5030675;28;20033;-81
2022/01/15 06:33:57;;;;;;;39.60;14.27;;;-3.00;99.90;;;;;;5031510;28;20110;-81
2022/01/15 06:36:23;;;;;;;57.43;15.57;;;-3.00;99.90;;;;;;5030677;28;20033;-82
2022/01/15 06:38:48;;;;;;;56.23;17.10;;;-3.00;99.90;;;;;;5030694;28;20033;-82
2022/01/15 06:41:14;;;;;;;36.03;16.33;;;-3.00;99.90;;;;;;5030157;28;20109;-82
2022/01/15 06:43:40;;;;;;;34.57;15.60;;;-3.00;99.90;;;;;;5029931;28;20061;-82
2022/01/15 06:46:05;;;;;;;87.20;21.37;;;-2.90;99.90;;;;;;5027168;28;20413;-80
2022/01/15 06:48:31;;;;;;;61.77;18.40;;;-2.80;99.90;;;;;;5028659;28;20017;-80
2022/01/15 06:50:58;;;;;;;49.30;17.60;;;-2.80;99.90;;;;;;5029711;28;20021;-80
2022/01/15 06:53:23;;;;;;;52.43;17.00;;;-2.80;99.90;;;;;;5030199;28;20095;-80
2022/01/15 06:55:52;;;;;;;38.53;17.80;;;-2.80;99.90;;;;;;5029986;28;20041;-81
2022/01/15 06:58:22;;;;;;;71.10;17.90;;;-2.80;99.90;;;;;;5029938;28;20929;-81
2022/01/15 07:00:48;;;;;;;33.37;16.37;;;-2.80;99.90;;;;;;5027655;28;20025;-80
2022/01/15 07:03:13;;;;;;;33.93;15.77;;;-2.70;99.90;;;;;;5029630;28;20039;-81
2022/01/15 07:05:39;;;;;;;25.40;13.03;;;-2.60;99.90;;;;;;5030005;28;20437;-80
2022/01/15 07:08:05;;;;;;;38.70;14.50;;;-2.60;99.90;;;;;;5029856;28;20048;-81
2022/01/15 07:10:30;;;;;;;66.63;12.23;;;-2.50;99.90;;;;;;5029704;28;20025;-81
2022/01/15 07:12:56;;;;;;;58.67;12.43;;;-2.50;99.90;;;;;;5026586;28;20113;-80
2022/01/15 07:15:21;;;;;;;54.33;10.80;;;-2.30;99.90;;;;;;5024950;28;20037;-80
2022/01/15 07:17:48;;;;;;;56.50;12.30;;;-2.40;99.90;;;;;;5010209;28;20181;-82
2022/01/15 07:20:16;;;;;;;92.10;13.37;;;-2.40;99.90;;;;;;5015840;28;20072;-81
2022/01/15 07:22:42;;;;;;;40.67;11.73;;;-2.30;99.90;;;;;;5029517;28;20106;-81
2022/01/15 07:25:08;;;;;;;56.63;12.77;;;-2.40;99.90;;;;;;5029698;28;20025;-81
2022/01/15 07:27:34;;;;;;;41.13;11.27;;;-2.40;99.90;;;;;;5029288;28;20033;-81
2022/01/15 07:30:01;;;;;;;21.17;10.33;;;-2.20;99.90;;;;;;5028567;28;20086;-81
2022/01/15 07:32:27;;;;;;;26.87;9.33;;;-2.10;99.90;;;;;;5028214;28;20048;-80
2022/01/15 07:34:52;;;;;;;83.80;12.87;;;-2.10;99.90;;;;;;5027209;28;20049;-80
2022/01/15 07:37:18;;;;;;;45.57;11.67;;;-2.10;99.90;;;;;;5029014;28;20148;-80
2022/01/15 07:39:44;;;;;;;42.87;13.00;;;-2.20;99.90;;;;;;5031228;28;20494;-82
2022/01/15 07:42:10;;;;;;;42.70;13.33;;;-2.20;99.90;;;;;;5030186;28;20116;-81
2022/01/15 07:44:36;;;;;;;35.63;11.43;;;-2.20;99.90;;;;;;5031236;28;20522;-82
2022/01/15 07:47:02;;;;;;;39.93;11.70;;;-2.20;99.90;;;;;;5031508;28;20112;-81
2022/01/15 07:49:27;;;;;;;46.43;11.47;;;-2.20;99.90;;;;;;5031133;28;20402;-81
2022/01/15 07:51:53;;;;;;;33.10;11.40;;;-2.20;99.90;;;;;;5030919;28;20040;-81
2022/01/15 07:54:19;;;;;;;23.53;11.37;;;-2.10;99.90;;;;;;5030773;28;20049;-81
2022/01/15 07:56:44;;;;;;;40.40;12.67;;;-2.10;99.90;;;;;;5031120;28;20033;-81
2022/01/15 07:59:10;;;;;;;71.93;12.60;;;-2.00;99.90;;;;;;5030881;28;20413;-81
2022/01/15 08:01:36;;;;;;;21.43;9.97;;;-2.00;99.90;;;;;;5031180;28;20041;-81
2022/01/15 08:04:03;;;;;;;22.07;9.93;;;-1.90;99.90;;;;;;5030582;28;20489;-81
2022/01/15 08:06:28;;;;;;;32.53;10.73;;;-1.90;99.90;;;;;;5031016;28;20061;-81
2022/01/15 08:08:54;;;;;;;22.30;10.70;;;-1.80;99.90;;;;;;5031268;28;20201;-81
2022/01/15 08:11:20;;;;;;;24.50;9.47;;;-1.70;99.90;;;;;;5031057;28;20344;-81
2022/01/15 08:13:45;;;;;;;90.73;12.57;;;-1.60;99.90;;;;;;5030627;28;20098;-81
2022/01/15 08:16:11;;;;;;;27.63;10.03;;;-1.60;99.90;;;;;;5027932;28;20041;-81
2022/01/15 08:18:37;;;;;;;32.20;10.30;;;-1.70;99.90;;;;;;5020478;28;20034;-81
2022/01/15 08:21:05;;;;;;;123.20;14.57;;;-1.70;99.90;;;;;;5030830;28;20040;-81
2022/01/15 08:23:30;;;;;;;53.13;11.83;;;-1.70;99.90;;;;;;5030788;28;20470;-81
2022/01/15 08:25:56;;;;;;;64.80;12.47;;;-1.80;99.90;;;;;;5030773;28;20064;-80
2022/01/15 08:28:23;;;;;;;69.90;12.90;;;-1.80;99.90;;;;;;5030550;28;20026;-81
2022/01/15 08:30:50;;;;;;;31.13;13.67;;;-1.70;99.90;;;;;;5029260;28;20421;-80
2022/01/15 08:33:16;;;;;;;23.83;11.27;;;-1.60;99.90;;;;;;5030944;28;20067;-80
2022/01/15 08:35:41;;;;;;;62.07;11.97;;;-1.60;99.90;;;;;;5030464;28;20124;-80
2022/01/15 08:38:07;;;;;;;41.07;10.97;;;-1.50;99.90;;;;;;5028252;28;20072;-81
2022/01/15 08:40:33;;;;;;;52.00;12.87;;;-1.50;99.90;;;;;;5010758;28;20030;-81
2022/01/15 08:43:00;;;;;;;65.30;14.83;;;-1.50;99.90;;;;;;5009169;28;20044;-81
2022/01/15 08:45:26;;;;;;;46.03;12.90;;;-1.50;99.90;;;;;;5010501;28;20521;-81
2022/01/15 08:47:53;;;;;;;92.93;17.00;;;-1.40;99.90;;;;;;5010460;28;20088;-81
2022/01/15 08:50:18;;;;;;;46.37;13.67;;;-1.40;99.90;;;;;;5009161;28;20246;-81
2022/01/15 08:52:45;;;;;;;44.13;14.70;;;-1.40;99.90;;;;;;5009080;28;20034;-81
2022/01/15 08:55:11;;;;;;;79.57;14.63;;;-1.50;99.90;;;;;;5010594;28;20045;-81
2022/01/15 08:57:37;;;;;;;64.23;16.40;;;-1.40;99.90;;;;;;5009312;28;20619;-81
2022/01/15 09:00:06;;;;;;;61.60;16.83;;;-1.40;99.90;;;;;;5008925;28;20034;-81
2022/01/15 09:02:32;;;;;;;62.87;16.03;;;-1.40;99.90;;;;;;5008661;28;20129;-81
2022/01/15 09:04:57;;;;;;;76.73;16.47;;;-1.40;99.90;;;;;;5012517;28;20108;-81
2022/01/15 09:07:23;;;;;;;50.37;15.70;;;-1.30;99.90;;;;;;5030086;28;20026;-82
2022/01/15 09:09:48;;;;;;;69.50;15.13;;;-1.20;99.90;;;;;;5030257;28;20057;-80
2022/01/15 09:12:15;;;;;;;98.83;16.00;;;-1.20;99.90;;;;;;5030092;28;20029;-81
2022/01/15 09:14:41;;;;;;;31.40;16.23;;;-1.10;99.90;;;;;;5029807;28;20430;-81
2022/01/15 09:17:06;;;;;;;48.97;15.47;;;-1.10;99.90;;;;;;5023721;28;20041;-81
2022/01/15 09:19:33;;;;;;;62.37;16.20;;;-1.00;99.90;;;;;;5012270;28;20030;-81
2022/01/15 09:21:59;;;;;;;35.30;17.97;;;-1.00;99.90;;;;;;5009806;28;20030;-81
2022/01/15 09:24:24;;;;;;;47.37;17.63;;;-0.90;99.90;;;;;;5009806;28;20038;-82
2022/01/15 09:32:05;;;;;;;30.40;15.37;;;-0.70;99.90;;;;;;5009932;28;20133;-82
2022/01/15 09:34:32;;;;;;;35.50;15.83;;;-0.50;99.90;;;;;;5012185;28;20120;-81
2022/01/15 09:36:58;;;;;;;32.83;17.07;;;-0.40;99.90;;;;;;5027886;28;20080;-82
2022/01/15 09:39:23;;;;;;;34.90;16.80;;;-0.50;99.90;;;;;;5029649;28;20033;-82
2022/01/15 09:41:51;;;;;;;41.37;17.03;;;-0.40;99.90;;;;;;5029084;28;20038;-82
2022/01/15 09:44:17;;;;;;;30.63;17.63;;;-0.40;99.90;;;;;;5028993;28;20108;-80
2022/01/15 09:46:45;;;;;;;36.57;17.47;;;-0.20;99.90;;;;;;5030524;28;20030;-82
2022/01/15 09:49:13;;;;;;;53.03;17.83;;;-0.10;99.90;;;;;;5029242;28;20025;-82
2022/01/15 09:51:39;;;;;;;34.37;18.00;;;-0.10;99.90;;;;;;5027835;28;20107;-82
2022/01/15 09:54:04;;;;;;;62.00;21.50;;;-0.10;99.90;;;;;;5027348;28;20060;-82
2022/01/15 09:56:30;;;;;;;35.63;18.83;;;0.00;99.90;;;;;;5027830;28;20829;-82
2022/01/15 09:58:58;;;;;;;54.53;20.17;;;0.00;99.90;;;;;;5028375;28;20036;-82
2022/01/15 10:01:26;;;;;;;33.13;20.33;;;-0.10;99.90;;;;;;5028874;28;20025;-81
2022/01/15 10:03:52;;;;;;;31.33;19.13;;;0.00;99.90;;;;;;5028972;28;20537;-82
2022/01/15 10:06:18;;;;;;;34.53;18.07;;;0.10;99.90;;;;;;5029074;28;20128;-82
2022/01/15 10:09:02;;;;;;;29.00;18.77;;;0.40;99.90;;;;;;5027208;28;20116;-82
2022/01/15 10:11:52;;;;;;;35.37;19.60;;;0.60;99.90;;;;;;5028803;28;20060;-82
2022/01/15 10:14:31;;;;;;;52.57;20.93;;;0.80;99.90;;;;;;5028694;28;20044;-82
2022/01/15 10:16:58;;;;;;;41.63;19.93;;;0.70;99.90;;;;;;5022110;28;20418;-82
2022/01/15 10:19:32;;;;;;;35.13;19.83;;;0.70;99.90;;;;;;5012480;28;20526;-82
2022/01/15 10:22:28;;;;;;;34.80;18.47;;;0.80;99.90;;;;;;5009134;28;20038;-82
2022/01/15 10:24:56;;;;;;;37.75;21.25;;;0.90;99.90;;;;;;5000226;28;20120;-82
2022/01/15 10:27:24;;;;;;;41.23;20.60;;;0.80;99.90;;;;;;5008805;28;20072;-82
2022/01/15 10:30:08;;;;;;;37.97;22.00;;;0.70;99.90;;;;;;5031497;28;20022;-81
2022/01/15 10:32:39;;;;;;;42.20;27.23;;;0.60;99.90;;;;;;5029432;28;20033;-81
2022/01/15 10:35:14;;;;;;;43.60;24.80;;;0.70;99.90;;;;;;5037562;28;20399;-81
2022/01/15 10:37:53;;;;;;;41.72;23.83;;;0.70;99.90;;;;;;5029482;28;20034;-81
2022/01/15 10:40:25;;;;;;;45.43;29.13;;;0.70;99.90;;;;;;5028645;28;20458;-81
2022/01/15 10:43:00;;;;;;;49.37;22.93;;;0.70;99.90;;;;;;5024572;28;20105;-82
2022/01/15 10:45:31;;;;;;;43.92;24.05;;;0.70;99.90;;;;;;5025236;28;20025;-81
2022/01/15 10:48:00;;;;;;;35.93;24.10;;;0.70;99.90;;;;;;5024742;28;20047;-82
2022/01/15 10:50:33;;;;;;;46.40;23.67;;;0.80;99.90;;;;;;5022200;28;20022;-81
2022/01/15 10:53:06;;;;;;;40.33;24.47;;;0.90;99.90;;;;;;5024176;28;20053;-82
2022/01/15 10:55:33;;;;;;;41.53;22.83;;;0.90;99.90;;;;;;5026335;28;20033;-82
2022/01/15 10:58:05;;;;;;;64.83;31.37;;;0.90;99.90;;;;;;5025702;28;20045;-82
2022/01/15 11:00:36;;;;;;;61.30;29.77;;;0.90;99.90;;;;;;5023537;28;20056;-81
2022/01/15 11:03:07;;;;;;;33.70;21.37;;;0.90;99.90;;;;;;5022657;28;20029;-82
2022/01/15 11:05:42;;;;;;;48.03;23.13;;;1.00;99.90;;;;;;5021371;28;20030;-82
2022/01/15 11:08:22;;;;;;;51.03;21.03;;;1.00;99.90;;;;;;5020986;28;20161;-82
2022/01/15 11:10:54;;;;;;;37.17;18.30;;;1.00;99.90;;;;;;5019217;28;20099;-82
2022/01/15 11:13:31;;;;;;;52.17;23.83;;;0.90;99.90;;;;;;5018615;28;20026;-82
2022/01/15 11:16:04;;;;;;;32.23;18.73;;;0.90;99.90;;;;;;5018439;28;20034;-82
2022/01/15 11:18:35;;;;;;;38.00;19.90;;;1.00;99.90;;;;;;5018683;28;20196;-82
2022/01/15 11:21:11;;;;;;;49.83;23.30;;;1.00;99.90;;;;;;5019964;28;20038;-82
2022/01/15 11:23:39;;;;;;;60.87;23.07;;;0.90;99.90;;;;;;5021954;28;20030;-80
2022/01/15 11:26:10;;;;;;;59.40;21.07;;;0.80;99.90;;;;;;5023646;28;20034;-81
2022/01/15 11:28:36;;;;;;;35.83;19.37;;;0.70;99.90;;;;;;5020880;28;20025;-81
2022/01/15 11:31:08;;;;;;;61.77;22.37;;;0.80;99.90;;;;;;5019462;28;20076;-81
2022/01/15 11:33:36;;;;;;;53.80;20.63;;;0.80;99.90;;;;;;5018707;28;20053;-81
2022/01/15 11:36:04;;;;;;;53.30;23.40;;;0.80;99.90;;;;;;5019914;28;20037;-81
2022/01/15 11:38:45;;;;;;;38.17;20.73;;;0.70;99.90;;;;;;5016475;28;20125;-81
2022/01/15 11:41:22;;;;;;;46.50;23.33;;;0.80;99.90;;;;;;5016802;28;20501;-81
2022/01/15 11:43:50;;;;;;;53.83;20.80;;;0.90;99.90;;;;;;5016401;28;20038;-80
2022/01/15 11:46:26;;;;;;;35.97;18.27;;;0.90;99.90;;;;;;5016304;28;20101;-81
2022/01/15 11:48:52;;;;;;;75.77;19.67;;;1.10;99.90;;;;;;5017748;28;20018;-81
2022/01/15 11:51:18;;;;;;;53.20;21.67;;;1.00;99.90;;;;;;5017987;28;20033;-81
2022/01/15 11:53:56;;;;;;;62.47;20.33;;;1.00;99.90;;;;;;5019009;28;20391;-81
2022/01/15 11:56:24;;;;;;;46.80;20.97;;;1.00;99.90;;;;;;5018306;28;20026;-82
2022/01/15 11:58:52;;;;;;;54.57;22.97;;;0.90;99.90;;;;;;5016835;28;20029;-81
2022/01/15 12:01:39;;;;;;;75.57;21.10;;;0.80;99.90;;;;;;5016801;28;20041;-81
2022/01/15 12:04:28;;;;;;;59.43;21.03;;;0.90;99.90;;;;;;5015056;28;20452;-81
2022/01/15 12:07:04;;;;;;;48.67;21.57;;;0.90;99.90;;;;;;5015820;28;20125;-81
2022/01/15 12:09:38;;;;;;;54.63;20.27;;;1.00;99.90;;;;;;5015382;28;20018;-81
2022/01/15 12:12:34;;;;;;;59.67;21.77;;;1.00;99.90;;;;;;5014836;28;20022;-81
2022/01/15 12:15:02;;;;;;;45.45;22.60;;;1.00;99.90;;;;;;5010629;28;20053;-81
2022/01/15 12:17:39;;;;;;;45.87;22.43;;;1.00;99.90;;;;;;5014445;28;20034;-82
2022/01/15 12:20:27;;;;;;;45.23;23.47;;;1.00;99.90;;;;;;5016806;28;20395;-81
2022/01/15 12:22:54;;;;;;;45.90;23.00;;;1.10;99.90;;;;;;5016180;28;20056;-82
2022/01/15 12:25:25;;;;;;;75.57;23.17;;;1.10;99.90;;;;;;5018784;28;20030;-82
2022/01/15 12:28:06;;;;;;;45.13;22.43;;;1.10;99.90;;;;;;5018141;28;20033;-82
2022/01/15 12:30:50;;;;;;;48.63;22.67;;;1.20;99.90;;;;;;5017932;28;20072;-83
2022/01/15 12:33:17;;;;;;;61.20;21.00;;;1.30;99.90;;;;;;5017911;28;20471;-82
2022/01/15 12:35:47;;;;;;;48.33;22.30;;;1.30;99.90;;;;;;5019377;28;20048;-81
2022/01/15 12:38:25;;;;;;;58.07;24.73;;;1.40;99.90;;;;;;5035818;28;20368;-82
2022/01/15 12:41:04;;;;;;;48.93;22.97;;;1.30;99.90;;;;;;5019048;28;20395;-81
2022/01/15 12:43:31;;;;;;;42.07;22.10;;;1.20;99.90;;;;;;5018733;28;20022;-81
2022/01/15 12:46:01;;;;;;;52.97;22.00;;;1.20;99.90;;;;;;5019788;28;20022;-82
2022/01/15 12:48:44;;;;;;;53.20;22.80;;;1.30;99.90;;;;;;5019779;28;20029;-80
2022/01/15 12:51:12;;;;;;;52.37;25.53;;;1.30;99.90;;;;;;5021116;28;20025;-81
2022/01/15 12:53:43;;;;;;;62.17;27.03;;;1.30;99.90;;;;;;5021210;28;20408;-82
2022/01/15 12:56:12;;;;;;;50.47;22.47;;;1.20;99.90;;;;;;5020889;28;20049;-81
2022/01/15 12:58:39;;;;;;;42.57;20.53;;;1.40;99.90;;;;;;5022231;28;20030;-81
2022/01/15 13:01:05;;;;;;;38.07;19.77;;;1.30;99.90;;;;;;5019320;28;20033;-82